Time;durP1;ratioP1;P1;durP2;ratioP2;P2;SDS_P1;SDS_P2;PMS_P1;PMS_P2;Temp;Humidity;BMP_temperature;BMP_pressure;BME280_temperature;BME280_humidity;BME280_pressure;Samples;Min_cycle;Max_cycle;Signal;HPM_P1;HPM_P2
2021/06/14 00:00:00;;;;;;;10.60;5.28;;;18.50;99.90;;;;;;1868443;75;21022;-72
2021/06/14 00:02:27;;;;;;;8.28;5.12;;;18.50;99.90;;;;;;1879845;75;21108;-71
2021/06/14 00:04:55;;;;;;;11.33;5.20;;;18.50;99.90;;;;;;1894545;74;22208;-72
2021/06/14 00:07:23;;;;;;;8.65;4.80;;;18.50;99.90;;;;;;1881053;75;21587;-73
2021/06/14 00:09:52;;;;;;;11.55;5.40;;;18.40;99.90;;;;;;1885164;74;21175;-73
2021/06/14 00:12:23;;;;;;;10.95;5.25;;;18.40;99.90;;;;;;1880414;75;21550;-73
2021/06/14 00:14:52;;;;;;;10.03;5.30;;;18.40;99.90;;;;;;1871994;74;21118;-71
2021/06/14 00:17:20;;;;;;;5.87;4.45;;;18.40;99.90;;;;;;1889379;75;21347;-72
2021/06/14 00:19:49;;;;;;;10.90;4.90;;;18.30;99.90;;;;;;1872738;74;21128;-72
2021/06/14 00:22:17;;;;;;;9.65;4.17;;;18.30;99.90;;;;;;1886082;74;21174;-72
2021/06/14 00:24:45;;;;;;;11.85;5.28;;;18.30;99.90;;;;;;1885892;75;21597;-73
2021/06/14 00:27:13;;;;;;;12.45;5.20;;;18.20;99.90;;;;;;1880381;75;21154;-73
2021/06/14 00:29:41;;;;;;;10.00;4.97;;;18.30;99.90;;;;;;1892745;75;21253;-72
2021/06/14 00:32:09;;;;;;;9.35;4.60;;;18.30;99.90;;;;;;1892783;75;21003;-73
2021/06/14 00:34:37;;;;;;;10.53;4.55;;;18.20;99.90;;;;;;1875951;75;21175;-72
2021/06/14 00:37:04;;;;;;;12.00;5.25;;;18.20;99.90;;;;;;1884210;75;21476;-72
2021/06/14 00:39:32;;;;;;;13.98;4.80;;;18.20;99.90;;;;;;1897870;75;21097;-71
2021/06/14 00:41:59;;;;;;;10.15;4.70;;;18.10;99.90;;;;;;1896465;75;21163;-72
2021/06/14 00:44:27;;;;;;;11.30;5.40;;;18.10;99.90;;;;;;1882361;75;21170;-72
2021/06/14 00:46:54;;;;;;;8.33;4.50;;;18.10;99.90;;;;;;1891302;75;21065;-72
2021/06/14 00:49:22;;;;;;;9.48;4.42;;;18.10;99.90;;;;;;1877693;75;21539;-73
2021/06/14 00:51:50;;;;;;;8.63;4.95;;;18.10;99.90;;;;;;1893395;74;21038;-72
2021/06/14 00:54:17;;;;;;;10.45;4.20;;;18.00;99.90;;;;;;1879491;75;21117;-72
2021/06/14 00:56:45;;;;;;;8.58;4.62;;;18.00;99.90;;;;;;1875753;74;21131;-73
2021/06/14 00:59:14;;;;;;;10.23;5.05;;;18.00;99.90;;;;;;1894745;74;21142;-73
2021/06/14 01:01:42;;;;;;;10.15;4.60;;;18.00;99.90;;;;;;1895596;74;21199;-73
2021/06/14 01:04:10;;;;;;;9.35;5.15;;;18.00;99.90;;;;;;1879594;75;21144;-72
2021/06/14 01:06:37;;;;;;;9.40;4.62;;;18.00;99.90;;;;;;1897603;75;21078;-73
2021/06/14 01:09:05;;;;;;;9.30;4.90;;;18.00;99.90;;;;;;1886661;75;21588;-72
2021/06/14 01:11:44;;;;;;;8.73;4.55;;;17.90;99.90;;;;;;1885843;74;21205;-71
2021/06/14 01:14:20;;;;;;;8.45;4.37;;;17.90;99.90;;;;;;1886975;74;21104;-72
2021/06/14 01:17:06;;;;;;;8.60;4.65;;;17.90;99.90;;;;;;1898140;75;21598;-72
2021/06/14 01:19:52;;;;;;;10.72;4.45;;;17.80;99.90;;;;;;1879781;75;21155;-72
2021/06/14 01:22:37;;;;;;;6.65;4.40;;;17.70;99.90;;;;;;1878114;75;21168;-72
2021/06/14 01:25:24;;;;;;;9.13;4.53;;;17.70;99.90;;;;;;1855900;75;21116;-73
2021/06/14 01:27:58;;;;;;;7.10;4.42;;;17.60;99.90;;;;;;1890207;75;21073;-73
2021/06/14 01:30:28;;;;;;;12.03;4.90;;;17.60;99.90;;;;;;1874611;75;21147;-72
2021/06/14 01:32:56;;;;;;;8.48;4.92;;;17.60;99.90;;;;;;1893084;74;21590;-72
2021/06/14 01:35:29;;;;;;;8.55;4.85;;;17.60;99.90;;;;;;1888018;74;21503;-71
2021/06/14 01:37:59;;;;;;;10.10;5.00;;;17.60;99.90;;;;;;1878384;75;21519;-72
2021/06/14 01:40:27;;;;;;;7.75;4.60;;;17.60;99.90;;;;;;1881990;75;21554;-72
2021/06/14 01:42:57;;;;;;;11.22;4.80;;;17.60;99.90;;;;;;1897549;74;21155;-73
2021/06/14 01:45:27;;;;;;;8.60;4.33;;;17.60;99.90;;;;;;1898136;74;21089;-72
2021/06/14 01:47:57;;;;;;;9.85;5.28;;;17.60;99.90;;;;;;1883620;75;21365;-73
2021/06/14 01:50:27;;;;;;;11.68;4.87;;;17.50;99.90;;;;;;1896741;74;21073;-73
2021/06/14 01:52:57;;;;;;;9.23;4.67;;;17.60;99.90;;;;;;1887316;75;21079;-73
2021/06/14 01:55:25;;;;;;;9.55;4.75;;;17.60;99.90;;;;;;1894067;75;21124;-73
2021/06/14 01:57:54;;;;;;;12.75;5.05;;;17.60;99.90;;;;;;1898541;75;21625;-73
2021/06/14 02:00:23;;;;;;;13.35;5.10;;;17.60;99.90;;;;;;1892106;75;21089;-73
2021/06/14 02:02:53;;;;;;;9.60;4.75;;;17.50;99.90;;;;;;1885112;75;21092;-72
2021/06/14 02:05:26;;;;;;;9.25;4.65;;;17.50;99.90;;;;;;1872416;75;21117;-72
2021/06/14 02:07:54;;;;;;;7.25;4.25;;;17.50;99.90;;;;;;1876295;75;21667;-72
2021/06/14 02:10:24;;;;;;;10.13;4.70;;;17.50;99.90;;;;;;1883829;75;21092;-73
2021/06/14 02:12:53;;;;;;;8.68;4.85;;;17.40;99.90;;;;;;1898231;75;21061;-73
2021/06/14 02:15:22;;;;;;;8.03;4.40;;;17.50;99.90;;;;;;1897520;74;21225;-73
2021/06/14 02:17:52;;;;;;;10.63;5.10;;;17.40;99.90;;;;;;1884330;75;21609;-74
2021/06/14 02:20:19;;;;;;;10.43;4.80;;;17.40;99.90;;;;;;1879970;75;21515;-72
2021/06/14 02:22:47;;;;;;;10.48;4.75;;;17.40;99.90;;;;;;1893154;74;21143;-73
2021/06/14 02:25:16;;;;;;;8.25;4.33;;;17.40;99.90;;;;;;1867711;75;21658;-73
2021/06/14 02:27:43;;;;;;;8.43;4.85;;;17.30;99.90;;;;;;1867145;75;21150;-73
2021/06/14 02:30:14;;;;;;;9.70;5.08;;;17.40;99.90;;;;;;1876143;75;21095;-73
2021/06/14 02:32:42;;;;;;;11.90;5.00;;;17.40;99.90;;;;;;1888440;74;21067;-72
2021/06/14 02:35:11;;;;;;;12.53;5.50;;;17.40;99.90;;;;;;1873606;75;21171;-72
2021/06/14 02:37:42;;;;;;;8.65;4.70;;;17.30;99.90;;;;;;1887084;75;21589;-73
2021/06/14 02:40:11;;;;;;;10.82;5.03;;;17.40;99.90;;;;;;1883159;75;21033;-72
2021/06/14 02:42:39;;;;;;;11.22;5.70;;;17.40;99.90;;;;;;1894365;75;21061;-73
2021/06/14 02:45:08;;;;;;;10.95;5.40;;;17.40;99.90;;;;;;1883933;75;21113;-72
2021/06/14 02:47:38;;;;;;;9.08;5.00;;;17.40;99.90;;;;;;1883334;75;21065;-72
2021/06/14 02:50:08;;;;;;;9.35;4.80;;;17.40;99.90;;;;;;1885126;75;21057;-72
2021/06/14 02:52:39;;;;;;;12.40;5.80;;;17.30;99.90;;;;;;1889330;75;21078;-72
2021/06/14 02:55:09;;;;;;;7.65;4.70;;;17.30;99.90;;;;;;1886054;74;21082;-71
2021/06/14 02:57:37;;;;;;;11.00;4.92;;;17.40;99.90;;;;;;1884487;74;21657;-72
2021/06/14 03:00:07;;;;;;;13.03;5.10;;;17.40;99.90;;;;;;1898050;74;21150;-73
2021/06/14 03:02:36;;;;;;;10.32;5.40;;;17.40;99.90;;;;;;1890364;75;21022;-74
2021/06/14 03:05:05;;;;;;;9.43;5.33;;;17.40;99.90;;;;;;1888157;75;21219;-73
2021/06/14 03:07:33;;;;;;;10.53;5.10;;;17.40;99.90;;;;;;1889181;75;21109;-73
2021/06/14 03:10:00;;;;;;;8.70;5.28;;;17.40;99.90;;;;;;1876606;75;21222;-73
2021/06/14 03:12:29;;;;;;;11.15;5.60;;;17.40;99.90;;;;;;1893676;74;21594;-73
2021/06/14 03:14:57;;;;;;;10.20;5.35;;;17.40;99.90;;;;;;1877848;74;21125;-73
2021/06/14 03:17:25;;;;;;;11.25;6.37;;;17.40;99.90;;;;;;1889355;75;21543;-73
2021/06/14 03:19:56;;;;;;;13.62;5.62;;;17.40;99.90;;;;;;1877251;75;21094;-72
2021/06/14 03:22:23;;;;;;;10.53;5.40;;;17.40;99.90;;;;;;1889430;74;21542;-75
2021/06/14 03:24:51;;;;;;;12.40;6.05;;;17.40;99.90;;;;;;1885535;75;21517;-75
2021/06/14 03:27:20;;;;;;;10.13;5.47;;;17.40;99.90;;;;;;1888483;74;21080;-75
2021/06/14 03:29:50;;;;;;;10.88;5.37;;;17.40;99.90;;;;;;1890213;74;21070;-72
2021/06/14 03:32:18;;;;;;;12.37;5.75;;;17.40;99.90;;;;;;1882229;75;21091;-72
2021/06/14 03:34:46;;;;;;;11.00;6.22;;;17.40;99.90;;;;;;1897609;74;21182;-72
2021/06/14 03:37:15;;;;;;;14.15;5.85;;;17.50;99.90;;;;;;1897874;75;21069;-72
2021/06/14 03:39:43;;;;;;;14.25;5.95;;;17.50;99.90;;;;;;1885011;75;21084;-73
2021/06/14 03:42:10;;;;;;;10.53;6.15;;;17.40;99.90;;;;;;1871234;75;21172;-72
2021/06/14 03:44:38;;;;;;;12.03;5.95;;;17.50;99.90;;;;;;1876387;75;21279;-73
2021/06/14 03:47:05;;;;;;;15.78;6.25;;;17.50;99.90;;;;;;1822037;78;21101;-73
2021/06/14 03:49:33;;;;;;;12.10;6.37;;;17.60;99.90;;;;;;1869415;75;21034;-73
2021/06/14 03:52:00;;;;;;;12.70;6.20;;;17.60;99.90;;;;;;1872664;75;21058;-72
2021/06/14 03:54:28;;;;;;;12.98;6.62;;;17.50;99.90;;;;;;1877285;75;21113;-71
2021/06/14 03:56:56;;;;;;;18.27;6.70;;;17.60;99.90;;;;;;1871983;75;21097;-72
2021/06/14 03:59:23;;;;;;;13.43;6.80;;;17.60;99.90;;;;;;1880586;74;21499;-73
2021/06/14 04:01:51;;;;;;;11.33;6.08;;;17.60;99.90;;;;;;1882687;75;21081;-72
2021/06/14 04:04:33;;;;;;;18.37;6.55;;;17.70;99.90;;;;;;1882609;75;21129;-72
2021/06/14 04:06:47;;;;;;;11.97;6.42;;;17.70;99.90;;;;;;1878782;75;21097;-73
2021/06/14 04:09:15;;;;;;;11.70;7.10;;;17.70;99.90;;;;;;1874586;75;21480;-72
2021/06/14 04:11:42;;;;;;;11.63;6.05;;;17.70;99.90;;;;;;1877467;75;21069;-72
2021/06/14 04:14:10;;;;;;;16.12;6.80;;;17.70;99.90;;;;;;1884687;74;21493;-73
2021/06/14 04:16:37;;;;;;;11.73;6.20;;;17.80;99.90;;;;;;1876652;75;21534;-74
2021/06/14 04:19:05;;;;;;;10.95;6.33;;;17.80;99.90;;;;;;1896975;74;21073;-72
2021/06/14 04:21:33;;;;;;;13.50;6.53;;;17.80;99.90;;;;;;1890981;75;21045;-73
2021/06/14 04:24:00;;;;;;;14.63;6.90;;;17.80;99.90;;;;;;1879846;75;21133;-73
2021/06/14 04:26:28;;;;;;;15.63;7.12;;;17.80;99.90;;;;;;1886271;75;21088;-74
2021/06/14 04:28:55;;;;;;;13.32;6.83;;;17.90;99.90;;;;;;1882080;75;21013;-73
2021/06/14 04:31:23;;;;;;;10.98;6.35;;;17.90;99.90;;;;;;1901567;74;21176;-74
2021/06/14 04:33:51;;;;;;;12.93;6.40;;;17.90;99.90;;;;;;1886719;75;21207;-73
2021/06/14 04:36:18;;;;;;;10.48;5.72;;;18.00;99.90;;;;;;1891849;75;21085;-73
2021/06/14 04:38:46;;;;;;;15.65;6.47;;;18.00;99.90;;;;;;1886322;74;21573;-72
2021/06/14 04:41:13;;;;;;;15.13;8.10;;;18.00;99.90;;;;;;1891644;75;21093;-73
2021/06/14 04:43:41;;;;;;;14.53;7.55;;;18.00;99.90;;;;;;1889891;74;21410;-73
2021/06/14 04:46:08;;;;;;;14.47;6.40;;;18.10;99.90;;;;;;1896042;74;21088;-73
2021/06/14 04:48:36;;;;;;;14.60;5.78;;;18.10;99.90;;;;;;1885732;74;21640;-73
2021/06/14 04:51:03;;;;;;;13.72;5.78;;;18.10;99.90;;;;;;1890621;75;21088;-74
2021/06/14 04:53:31;;;;;;;13.55;6.42;;;18.10;99.90;;;;;;1886129;75;21128;-73
2021/06/14 04:55:58;;;;;;;10.78;6.05;;;18.10;99.90;;;;;;1866836;75;21062;-73
2021/06/14 04:58:26;;;;;;;15.72;6.45;;;18.20;99.90;;;;;;1881935;75;21188;-73
2021/06/14 05:00:53;;;;;;;12.90;5.78;;;18.20;99.90;;;;;;1886638;75;21105;-73
2021/06/14 05:03:21;;;;;;;18.15;5.87;;;18.20;99.90;;;;;;1891938;74;21116;-72
2021/06/14 05:05:48;;;;;;;17.10;6.05;;;18.40;99.90;;;;;;1872148;75;21119;-73
2021/06/14 05:08:18;;;;;;;16.27;5.95;;;18.40;99.90;;;;;;1882900;75;21667;-73
2021/06/14 05:10:47;;;;;;;16.82;5.87;;;18.40;99.90;;;;;;1889950;75;21136;-73
2021/06/14 05:13:15;;;;;;;16.75;5.95;;;18.50;99.90;;;;;;1883854;75;21275;-73
2021/06/14 05:15:43;;;;;;;13.80;6.10;;;18.50;99.90;;;;;;1886120;75;21101;-73
2021/06/14 05:18:10;;;;;;;18.67;9.00;;;18.50;99.90;;;;;;1875034;75;21065;-73
2021/06/14 05:20:39;;;;;;;14.28;6.20;;;18.60;99.90;;;;;;1878004;74;21038;-73
2021/06/14 05:23:07;;;;;;;14.20;6.08;;;18.60;99.90;;;;;;1889233;74;21359;-73
2021/06/14 05:25:36;;;;;;;19.10;6.05;;;18.70;99.90;;;;;;1885192;74;21104;-73
2021/06/14 05:28:04;;;;;;;11.60;5.85;;;18.60;99.90;;;;;;1894223;74;21065;-71
2021/06/14 05:30:32;;;;;;;18.40;6.28;;;18.70;99.90;;;;;;1875419;75;21550;-73
2021/06/14 05:33:00;;;;;;;11.80;5.70;;;18.80;99.90;;;;;;1888162;75;21042;-73
2021/06/14 05:35:27;;;;;;;13.05;5.45;;;18.80;99.90;;;;;;1878833;75;21160;-73
2021/06/14 05:37:55;;;;;;;13.38;5.15;;;19.00;99.90;;;;;;1891742;75;21061;-74
2021/06/14 05:40:22;;;;;;;14.90;6.22;;;19.00;99.90;;;;;;1871590;75;21515;-73
2021/06/14 05:42:50;;;;;;;15.13;6.45;;;19.10;99.90;;;;;;1893238;74;21144;-72
2021/06/14 05:45:18;;;;;;;14.13;6.25;;;19.10;99.90;;;;;;1870493;75;21166;-73
2021/06/14 05:47:45;;;;;;;14.20;5.85;;;19.00;99.90;;;;;;1888352;75;21072;-72
2021/06/14 05:50:13;;;;;;;18.90;7.25;;;19.10;99.90;;;;;;1896546;74;21124;-73
2021/06/14 05:52:41;;;;;;;19.25;7.10;;;19.20;99.90;;;;;;1892745;75;21335;-74
2021/06/14 05:55:09;;;;;;;12.63;5.97;;;19.20;99.90;;;;;;1895927;75;21111;-74
2021/06/14 05:57:36;;;;;;;17.40;6.80;;;19.30;99.90;;;;;;1889157;74;21107;-71
2021/06/14 06:00:07;;;;;;;16.97;6.72;;;19.20;99.90;;;;;;1888243;75;21088;-71
2021/06/14 06:02:35;;;;;;;16.73;6.85;;;19.20;99.90;;;;;;1882528;74;21094;-72
2021/06/14 06:05:02;;;;;;;14.60;5.40;;;19.40;99.90;;;;;;1891390;74;21298;-75
2021/06/14 06:07:30;;;;;;;16.70;5.97;;;19.40;99.90;;;;;;1874817;74;21185;-73
2021/06/14 06:09:57;;;;;;;16.00;6.28;;;19.50;99.90;;;;;;1883814;75;21519;-74
2021/06/14 06:12:25;;;;;;;13.85;5.92;;;19.50;99.90;;;;;;1883977;74;21037;-73
2021/06/14 06:14:52;;;;;;;15.15;6.55;;;19.60;99.90;;;;;;1871456;75;21174;-74
2021/06/14 06:17:20;;;;;;;20.55;6.72;;;19.70;99.90;;;;;;1895284;74;21164;-74
2021/06/14 06:19:47;;;;;;;13.22;5.62;;;19.60;99.90;;;;;;1895510;74;21590;-77
2021/06/14 06:22:15;;;;;;;15.03;5.55;;;19.70;99.90;;;;;;1882910;74;21146;-75
2021/06/14 06:24:44;;;;;;;20.17;6.15;;;19.60;99.90;;;;;;1881098;74;21065;-75
2021/06/14 06:27:11;;;;;;;17.60;6.70;;;19.80;99.90;;;;;;1887335;74;21026;-75
2021/06/14 06:29:39;;;;;;;18.42;6.70;;;19.80;99.90;;;;;;1896724;75;21171;-75
2021/06/14 06:32:07;;;;;;;14.13;6.08;;;19.80;99.90;;;;;;1889862;74;21085;-75
2021/06/14 06:34:34;;;;;;;11.57;6.03;;;19.90;99.90;;;;;;1888394;74;21097;-74
2021/06/14 06:37:02;;;;;;;17.45;5.80;;;19.90;99.90;;;;;;1886752;74;21121;-75
2021/06/14 06:39:29;;;;;;;17.10;5.90;;;20.00;99.90;;;;;;1895535;75;21046;-74
2021/06/14 06:42:00;;;;;;;13.10;5.92;;;20.10;99.90;;;;;;1878322;75;21245;-75
2021/06/14 06:44:26;;;;;;;17.82;6.67;;;20.10;99.90;;;;;;1886584;74;21100;-75
2021/06/14 06:46:54;;;;;;;17.37;5.87;;;20.20;99.90;;;;;;1884874;75;21111;-74
2021/06/14 06:49:21;;;;;;;13.93;5.72;;;20.20;99.90;;;;;;1883661;75;21158;-74
2021/06/14 06:51:49;;;;;;;16.10;5.80;;;20.30;99.90;;;;;;1896359;75;21608;-76
2021/06/14 06:54:17;;;;;;;17.35;6.35;;;20.30;99.90;;;;;;1867521;75;21101;-76
2021/06/14 06:56:46;;;;;;;16.48;6.03;;;20.30;99.90;;;;;;1888334;74;21150;-77
2021/06/14 06:59:14;;;;;;;11.48;5.17;;;20.40;99.90;;;;;;1883935;75;21046;-76
2021/06/14 07:01:42;;;;;;;13.03;5.78;;;20.50;99.90;;;;;;1883327;74;21162;-76
2021/06/14 07:04:09;;;;;;;15.43;5.40;;;20.50;99.90;;;;;;1872076;74;21808;-77
2021/06/14 07:06:37;;;;;;;14.55;5.72;;;20.50;99.90;;;;;;1877574;75;21534;-80
2021/06/14 07:09:06;;;;;;;13.25;5.03;;;20.50;99.90;;;;;;1892084;75;21479;-79
2021/06/14 07:11:34;;;;;;;11.97;5.85;;;20.60;99.90;;;;;;1886748;74;21034;-78
2021/06/14 07:14:02;;;;;;;16.57;5.53;;;20.70;99.90;;;;;;1891850;74;21077;-79
2021/06/14 07:16:30;;;;;;;10.88;5.30;;;20.70;99.90;;;;;;1870971;75;21547;-80
2021/06/14 07:19:00;;;;;;;13.13;5.65;;;20.80;99.90;;;;;;1886279;75;21029;-78
2021/06/14 07:21:27;;;;;;;14.53;4.97;;;20.90;99.90;;;;;;1892704;74;21515;-79
2021/06/14 07:23:55;;;;;;;11.80;4.72;;;20.90;99.90;;;;;;1896162;74;21186;-79
2021/06/14 07:26:24;;;;;;;16.30;4.92;;;21.00;99.90;;;;;;1885367;75;21072;-80
2021/06/14 07:28:52;;;;;;;12.23;5.08;;;21.00;99.90;;;;;;1889912;74;21085;-79
2021/06/14 07:31:20;;;;;;;11.68;4.62;;;21.00;99.90;;;;;;1885192;74;21135;-79
2021/06/14 07:33:48;;;;;;;17.00;5.20;;;21.10;99.90;;;;;;1891013;74;22359;-78
2021/06/14 07:36:16;;;;;;;14.00;4.67;;;21.10;99.90;;;;;;1895882;74;21119;-80
2021/06/14 07:38:44;;;;;;;10.03;4.08;;;21.20;99.90;;;;;;1877923;75;21033;-77
2021/06/14 07:41:12;;;;;;;10.55;4.53;;;21.10;99.90;;;;;;1879286;75;21068;-77
2021/06/14 07:43:40;;;;;;;12.37;4.10;;;21.10;99.90;;;;;;1882252;74;21152;-76
2021/06/14 07:46:07;;;;;;;9.45;4.10;;;21.20;99.90;;;;;;1886721;74;21081;-75
2021/06/14 07:48:35;;;;;;;13.05;4.55;;;21.30;99.90;;;;;;1892935;74;21627;-76
2021/06/14 07:51:05;;;;;;;14.35;5.00;;;21.40;99.90;;;;;;1896579;74;21179;-75
2021/06/14 07:53:32;;;;;;;11.45;4.17;;;21.40;99.90;;;;;;1892371;75;21060;-74
2021/06/14 07:56:00;;;;;;;15.13;4.50;;;21.50;99.90;;;;;;1887752;75;21166;-75
2021/06/14 07:58:28;;;;;;;9.88;4.35;;;21.60;99.90;;;;;;1870937;74;21183;-74
2021/06/14 08:00:55;;;;;;;11.83;4.75;;;21.70;99.90;;;;;;1893001;74;22651;-74
2021/06/14 08:03:24;;;;;;;14.25;4.87;;;21.70;99.90;;;;;;1877380;75;21101;-77
2021/06/14 08:05:52;;;;;;;10.45;4.78;;;21.70;99.90;;;;;;1892750;74;22260;-76
2021/06/14 08:08:20;;;;;;;10.58;4.33;;;21.70;99.90;;;;;;1892389;74;21205;-74
2021/06/14 08:10:49;;;;;;;8.25;4.03;;;21.70;99.90;;;;;;1893370;74;21159;-75
2021/06/14 08:13:17;;;;;;;11.68;4.20;;;21.80;99.90;;;;;;1895501;75;21206;-76
2021/06/14 08:15:45;;;;;;;9.25;4.03;;;21.90;99.90;;;;;;1883383;74;21748;-77
2021/06/14 08:18:37;;;;;;;11.63;4.62;;;21.90;99.90;;;;;;1875965;74;21526;-76
2021/06/14 08:26:28;;;;;;;9.80;4.22;;;22.00;99.90;;;;;;1886227;74;21599;-76
2021/06/14 08:28:57;;;;;;;7.55;3.35;;;21.90;99.90;;;;;;1888785;74;21535;-76
2021/06/14 08:31:27;;;;;;;11.43;4.30;;;21.90;99.90;;;;;;1878377;74;21164;-75
2021/06/14 08:33:55;;;;;;;10.08;4.37;;;22.10;99.90;;;;;;1880932;74;21559;-77
2021/06/14 08:36:23;;;;;;;12.60;4.53;;;22.20;99.90;;;;;;1895306;74;21065;-77
2021/06/14 08:38:51;;;;;;;10.28;4.12;;;22.20;99.90;;;;;;1877911;74;21096;-75
2021/06/14 08:41:20;;;;;;;9.43;4.20;;;22.30;99.90;;;;;;1892209;74;21038;-75
2021/06/14 08:43:50;;;;;;;9.28;4.30;;;22.20;99.90;;;;;;1887768;75;21101;-75
2021/06/14 08:46:18;;;;;;;10.45;4.35;;;22.30;99.90;;;;;;1865298;74;21116;-75
2021/06/14 08:48:46;;;;;;;11.38;3.92;;;22.30;99.90;;;;;;1870964;75;21057;-74
2021/06/14 08:51:14;;;;;;;9.13;3.90;;;22.50;99.90;;;;;;1865290;74;21492;-75
2021/06/14 08:53:42;;;;;;;9.15;3.98;;;22.30;99.90;;;;;;1895111;74;21081;-75
2021/06/14 08:56:10;;;;;;;11.40;3.92;;;22.40;99.90;;;;;;1890788;75;21566;-75
2021/06/14 08:58:38;;;;;;;10.03;4.35;;;22.60;99.90;;;;;;1886631;74;21543;-75
2021/06/14 09:01:05;;;;;;;16.17;4.47;;;22.60;99.90;;;;;;1874712;74;21057;-76
2021/06/14 09:03:33;;;;;;;10.63;4.75;;;22.60;99.60;;;;;;1849450;75;21088;-74
2021/06/14 09:06:00;;;;;;;10.75;4.15;;;22.70;99.90;;;;;;1889714;74;21519;-75
2021/06/14 09:08:28;;;;;;;14.10;4.28;;;22.80;99.90;;;;;;1896328;74;21132;-75
2021/06/14 09:10:55;;;;;;;10.38;4.47;;;22.90;99.90;;;;;;1868800;75;21132;-74
2021/06/14 09:13:25;;;;;;;9.48;4.22;;;22.90;99.90;;;;;;1884875;74;21148;-75
2021/06/14 09:15:56;;;;;;;10.10;4.70;;;23.00;99.90;;;;;;1876909;75;21132;-75
2021/06/14 09:18:28;;;;;;;12.40;4.30;;;23.00;99.90;;;;;;1882402;74;21084;-76
2021/06/14 09:21:12;;;;;;;10.10;4.03;;;23.10;99.90;;;;;;1897127;74;21519;-76
2021/06/14 09:23:43;;;;;;;10.68;4.33;;;23.00;99.60;;;;;;1877583;75;21042;-75
2021/06/14 09:26:19;;;;;;;14.13;4.45;;;23.10;99.30;;;;;;1893169;74;21085;-76
2021/06/14 09:28:48;;;;;;;14.10;4.20;;;23.10;99.90;;;;;;1878801;74;21589;-75
2021/06/14 09:31:16;;;;;;;12.35;4.28;;;23.10;98.70;;;;;;1894616;74;21115;-74
2021/06/14 09:33:46;;;;;;;10.23;4.05;;;23.20;98.90;;;;;;1891138;74;21672;-77
2021/06/14 09:36:16;;;;;;;8.83;3.62;;;23.40;98.70;;;;;;1889795;74;21093;-76
2021/06/14 09:38:44;;;;;;;8.55;4.28;;;23.50;99.90;;;;;;1888599;75;21598;-78
2021/06/14 09:41:14;;;;;;;9.33;3.67;;;23.40;99.70;;;;;;1885825;74;21259;-78
2021/06/14 09:43:47;;;;;;;10.40;3.87;;;23.50;99.70;;;;;;1896542;74;21115;-77
2021/06/14 09:46:30;;;;;;;8.20;3.95;;;23.60;98.40;;;;;;1876394;75;21559;-77
2021/06/14 09:49:00;;;;;;;11.22;4.10;;;23.60;97.70;;;;;;1880013;74;21607;-76
2021/06/14 09:51:34;;;;;;;9.15;3.75;;;23.50;97.50;;;;;;1890972;74;21037;-76
2021/06/14 09:53:58;;;;;;;10.10;3.87;;;23.60;98.10;;;;;;1891747;74;21504;-76
2021/06/14 09:56:29;;;;;;;8.00;3.83;;;23.60;97.40;;;;;;1891779;74;21018;-76
2021/06/14 09:58:58;;;;;;;11.60;4.08;;;23.80;97.10;;;;;;1890815;74;21174;-75
2021/06/14 10:01:34;;;;;;;10.98;4.40;;;23.90;98.10;;;;;;1890626;75;21150;-77
2021/06/14 10:04:09;;;;;;;8.58;3.62;;;23.90;97.60;;;;;;1889502;74;21186;-76
2021/06/14 10:06:42;;;;;;;8.45;4.08;;;24.00;99.50;;;;;;1889245;75;21136;-77
2021/06/14 10:09:12;;;;;;;9.25;4.00;;;24.10;99.10;;;;;;1884540;74;21104;-75
2021/06/14 10:11:43;;;;;;;10.00;3.72;;;24.20;98.80;;;;;;1883281;75;21467;-80
2021/06/14 10:14:13;;;;;;;8.70;3.80;;;24.30;99.10;;;;;;1875800;74;21116;-76
2021/06/14 10:16:43;;;;;;;10.45;3.95;;;24.30;97.90;;;;;;1886999;74;21231;-75
2021/06/14 10:19:13;;;;;;;8.40;3.52;;;24.40;98.30;;;;;;1892792;75;21155;-76
2021/06/14 10:21:46;;;;;;;10.30;3.98;;;24.50;98.80;;;;;;1882466;75;22146;-75
2021/06/14 10:24:18;;;;;;;9.95;4.58;;;24.50;98.50;;;;;;1885478;74;21292;-76
2021/06/14 10:26:50;;;;;;;10.50;3.80;;;24.50;98.90;;;;;;1887622;74;21002;-75
2021/06/14 10:29:18;;;;;;;12.45;3.62;;;24.50;97.70;;;;;;1891469;74;21595;-74
2021/06/14 10:31:49;;;;;;;9.80;3.58;;;24.50;97.60;;;;;;1888016;74;22282;-74
2021/06/14 10:34:17;;;;;;;7.72;3.20;;;24.70;98.00;;;;;;1875743;74;21082;-74
2021/06/14 10:36:53;;;;;;;10.82;3.77;;;24.70;97.80;;;;;;1886589;74;21712;-75
2021/06/14 10:39:27;;;;;;;9.53;3.80;;;24.70;97.70;;;;;;1859573;75;21053;-74
2021/06/14 10:41:55;;;;;;;6.75;3.35;;;24.90;98.10;;;;;;1868036;75;21045;-74
2021/06/14 10:44:23;;;;;;;9.85;3.40;;;25.00;96.80;;;;;;1884892;74;21069;-74
2021/06/14 10:46:50;;;;;;;11.75;3.83;;;25.10;96.90;;;;;;1878814;74;21547;-74
2021/06/14 10:49:19;;;;;;;10.75;3.80;;;25.30;97.40;;;;;;1887895;75;21093;-74
2021/06/14 10:51:52;;;;;;;6.78;3.05;;;25.20;96.40;;;;;;1882904;75;21610;-75
2021/06/14 10:54:20;;;;;;;11.60;3.33;;;25.20;96.30;;;;;;1881396;74;21112;-75
2021/06/14 10:56:47;;;;;;;7.67;2.95;;;25.30;96.10;;;;;;1889289;74;21113;-75
2021/06/14 10:59:17;;;;;;;12.25;3.55;;;25.40;96.60;;;;;;1877416;75;21125;-75
2021/06/14 11:01:49;;;;;;;8.43;3.77;;;25.50;96.40;;;;;;1887025;74;21183;-75
2021/06/14 11:04:26;;;;;;;8.40;3.33;;;25.50;96.20;;;;;;1869188;75;21085;-76
2021/06/14 11:06:56;;;;;;;7.08;3.35;;;25.60;96.70;;;;;;1888027;74;21132;-76
2021/06/14 11:09:24;;;;;;;8.83;3.35;;;25.70;96.50;;;;;;1873609;75;21464;-75
2021/06/14 11:11:55;;;;;;;7.37;3.25;;;25.80;96.80;;;;;;1857562;75;21097;-75
2021/06/14 11:14:41;;;;;;;7.97;3.02;;;25.70;95.50;;;;;;1863246;75;21202;-75
2021/06/14 11:17:23;;;;;;;7.20;3.10;;;25.70;96.70;;;;;;1880345;74;21112;-76
2021/06/14 11:19:53;;;;;;;7.40;3.27;;;25.80;95.80;;;;;;1880183;75;21715;-75
2021/06/14 11:22:21;;;;;;;9.20;3.05;;;25.80;96.40;;;;;;1892451;75;21093;-76
2021/06/14 11:24:49;;;;;;;8.25;3.37;;;25.80;97.30;;;;;;1885218;75;21151;-75
2021/06/14 11:27:16;;;;;;;8.25;3.33;;;25.80;96.40;;;;;;1906714;74;21608;-75
2021/06/14 11:29:50;;;;;;;6.87;3.40;;;25.90;95.70;;;;;;1871249;75;21073;-76
2021/06/14 11:32:20;;;;;;;7.83;3.02;;;25.90;95.80;;;;;;1878987;75;21154;-75
2021/06/14 11:34:51;;;;;;;5.83;3.30;;;26.00;95.50;;;;;;1895045;75;21109;-75
2021/06/14 11:37:19;;;;;;;6.35;2.90;;;26.00;95.60;;;;;;1897599;74;21097;-75
2021/06/14 11:39:47;;;;;;;8.05;2.85;;;26.00;95.30;;;;;;1871171;75;21162;-75
2021/06/14 11:42:20;;;;;;;7.20;2.90;;;26.10;94.90;;;;;;1897013;74;21186;-76
2021/06/14 11:45:00;;;;;;;7.87;2.62;;;26.10;94.90;;;;;;1890331;75;21103;-75
2021/06/14 11:47:30;;;;;;;6.92;3.17;;;26.20;95.40;;;;;;1879194;75;21425;-74
2021/06/14 11:50:02;;;;;;;5.85;2.75;;;26.30;95.70;;;;;;1860774;75;21506;-75
2021/06/14 11:52:35;;;;;;;10.05;3.12;;;26.30;95.50;;;;;;1870866;75;22158;-74
2021/06/14 11:55:05;;;;;;;8.08;3.10;;;26.30;95.30;;;;;;1889784;74;21144;-74
2021/06/14 11:57:36;;;;;;;7.45;3.00;;;26.40;95.10;;;;;;1878900;75;21096;-74
2021/06/14 12:00:06;;;;;;;8.63;3.10;;;26.50;96.30;;;;;;1878697;75;21102;-74
2021/06/14 12:02:34;;;;;;;8.45;2.90;;;26.40;94.80;;;;;;1882874;74;21171;-73
2021/06/14 12:05:02;;;;;;;9.05;3.02;;;26.40;94.10;;;;;;1876889;75;21198;-73
2021/06/14 12:07:36;;;;;;;8.13;3.20;;;26.50;95.00;;;;;;1895134;74;21120;-74
2021/06/14 12:10:13;;;;;;;5.65;2.60;;;26.50;95.20;;;;;;1896764;74;21037;-75
2021/06/14 12:12:44;;;;;;;6.95;2.95;;;26.50;95.60;;;;;;1887750;75;21178;-75
2021/06/14 12:15:12;;;;;;;7.80;2.67;;;26.50;96.10;;;;;;1893643;74;21605;-75
2021/06/14 12:17:44;;;;;;;7.10;3.15;;;26.60;95.40;;;;;;1875098;74;21034;-75
2021/06/14 12:20:12;;;;;;;4.50;3.00;;;26.60;95.60;;;;;;1853882;75;21181;-77
2021/06/14 12:22:40;;;;;;;5.87;3.00;;;26.60;97.40;;;;;;1881070;75;21014;-74
2021/06/14 12:25:11;;;;;;;6.80;2.42;;;26.60;94.70;;;;;;1892807;74;21099;-74
2021/06/14 12:27:39;;;;;;;5.10;2.47;;;26.50;93.80;;;;;;1894092;75;21046;-74
2021/06/14 12:30:09;;;;;;;5.37;2.47;;;26.60;94.80;;;;;;1895561;75;21065;-74
2021/06/14 12:32:39;;;;;;;7.90;3.20;;;26.70;91.60;;;;;;1886552;74;21550;-74
2021/06/14 12:35:08;;;;;;;8.30;2.90;;;26.70;92.40;;;;;;1876545;75;21135;-74
2021/06/14 12:37:36;;;;;;;8.98;3.00;;;26.80;94.30;;;;;;1879961;75;21037;-74
2021/06/14 12:40:09;;;;;;;7.70;2.62;;;26.70;93.30;;;;;;1865627;75;21092;-74
2021/06/14 12:42:38;;;;;;;9.53;2.70;;;26.80;93.90;;;;;;1886363;74;21385;-74
2021/06/14 12:45:12;;;;;;;5.83;2.45;;;26.80;95.30;;;;;;1894745;75;21543;-73
2021/06/14 12:47:48;;;;;;;5.33;2.75;;;26.80;93.90;;;;;;1880703;75;21069;-73
2021/06/14 12:50:24;;;;;;;5.45;2.20;;;26.80;95.50;;;;;;1868837;75;21643;-74
2021/06/14 12:52:55;;;;;;;10.23;2.80;;;27.00;94.30;;;;;;1857490;75;21088;-74
2021/06/14 12:55:27;;;;;;;5.42;2.40;;;26.90;93.90;;;;;;1884378;74;21097;-74